createdAt,value
2018-03-02T00:00:40.461Z,1000.08
2018-03-02T00:01:40.429Z,1000.06
2018-03-02T00:02:40.396Z,1000.07
2018-03-02T00:03:40.372Z,1000.06
2018-03-02T00:04:40.329Z,1000.01
2018-03-02T00:05:40.304Z,1000.02
2018-03-02T00:06:40.284Z,999.96
2018-03-02T00:07:40.235Z,999.96
2018-03-02T00:08:40.203Z,999.87
2018-03-02T00:09:40.172Z,999.91
2018-03-02T00:10:40.136Z,999.87
2018-03-02T00:11:40.102Z,999.89
2018-03-02T00:12:40.079Z,999.89
2018-03-02T00:13:40.042Z,999.91
2018-03-02T00:14:40.008Z,999.89
2018-03-02T00:15:39.979Z,999.85
2018-03-02T00:16:39.957Z,999.85
2018-03-02T00:17:39.924Z,999.84
2018-03-02T00:18:39.883Z,999.85
2018-03-02T00:19:39.851Z,999.81
2018-03-02T00:20:39.835Z,999.79
2018-03-02T00:21:39.791Z,999.77
2018-03-02T00:22:39.751Z,999.73
2018-03-02T00:23:39.725Z,999.75
2018-03-02T00:24:39.693Z,999.69
2018-03-02T00:25:39.657Z,999.70
2018-03-02T00:26:39.630Z,999.68
2018-03-02T00:27:39.591Z,999.70
2018-03-02T00:28:39.569Z,999.62
2018-03-02T00:29:39.535Z,999.67
2018-03-02T00:30:39.496Z,999.64
2018-03-02T00:31:39.465Z,999.65
2018-03-02T00:32:39.433Z,999.70
2018-03-02T00:33:39.403Z,999.67
2018-03-02T00:34:39.366Z,999.70
2018-03-02T00:35:39.338Z,999.68
2018-03-02T00:36:39.302Z,999.63
2018-03-02T00:37:39.271Z,999.69
2018-03-02T00:38:39.252Z,999.66
2018-03-02T00:39:39.206Z,999.59
2018-03-02T00:40:39.177Z,999.64
2018-03-02T00:41:39.149Z,999.67
2018-03-02T00:42:39.115Z,999.63
2018-03-02T00:43:39.074Z,999.60
2018-03-02T00:44:39.046Z,999.61
2018-03-02T00:45:39.013Z,999.63
2018-03-02T00:46:38.980Z,999.59
2018-03-02T00:47:38.949Z,999.58
2018-03-02T00:48:38.917Z,999.54
2018-03-02T00:49:38.881Z,999.61
2018-03-02T00:50:38.855Z,999.53
2018-03-02T00:51:38.817Z,999.54
2018-03-02T00:52:38.783Z,999.50
2018-03-02T00:53:38.756Z,999.42
2018-03-02T00:54:38.722Z,999.48
2018-03-02T00:55:38.689Z,999.47
2018-03-02T00:56:38.658Z,999.53
2018-03-02T00:57:38.625Z,999.40
2018-03-02T00:58:38.595Z,999.53
2018-03-02T00:59:38.563Z,999.50
2018-03-02T01:00:38.531Z,999.41
2018-03-02T01:01:38.497Z,999.40
2018-03-02T01:02:38.506Z,999.39
2018-03-02T01:03:38.458Z,999.41
2018-03-02T01:04:38.429Z,999.38
2018-03-02T01:05:38.365Z,999.40
2018-03-02T01:06:38.351Z,999.37
2018-03-02T01:07:38.299Z,999.43
2018-03-02T01:08:38.266Z,999.40
2018-03-02T01:09:38.256Z,999.43
2018-03-02T01:10:38.203Z,999.40
2018-03-02T01:11:38.217Z,999.35
2018-03-02T01:12:38.142Z,999.36
2018-03-02T01:13:38.110Z,999.32
2018-03-02T01:14:38.088Z,999.29
2018-03-02T01:15:38.051Z,999.35
2018-03-02T01:16:38.008Z,999.35
2018-03-02T01:17:37.977Z,999.30
2018-03-02T01:18:37.943Z,999.30
2018-03-02T01:19:37.915Z,999.29
2018-03-02T01:20:37.875Z,999.26
2018-03-02T01:21:37.851Z,999.26
2018-03-02T01:22:37.807Z,999.26
2018-03-02T01:23:37.779Z,999.22
2018-03-02T01:24:37.749Z,999.28
2018-03-02T01:25:37.718Z,999.25
2018-03-02T01:26:37.681Z,999.30
2018-03-02T01:27:37.650Z,999.23
2018-03-02T01:28:37.631Z,999.23
2018-03-02T01:29:37.584Z,999.26
2018-03-02T01:30:37.556Z,999.30
2018-03-02T01:31:37.532Z,999.28
2018-03-02T01:32:37.491Z,999.33
2018-03-02T01:33:37.459Z,999.23
2018-03-02T01:34:37.425Z,999.22
2018-03-02T01:35:37.387Z,999.21
2018-03-02T01:36:37.355Z,999.14
2018-03-02T01:37:37.337Z,999.12
2018-03-02T01:38:37.295Z,999.16
2018-03-02T01:39:37.259Z,999.13
2018-03-02T01:40:37.228Z,999.06
2018-03-02T01:41:37.201Z,999.02
2018-03-02T01:42:37.166Z,999.03
2018-03-02T01:43:37.133Z,998.95
2018-03-02T01:44:37.116Z,999.01
2018-03-02T01:45:37.068Z,999.00
2018-03-02T01:46:37.029Z,998.96
2018-03-02T01:47:36.996Z,998.95
2018-03-02T01:48:36.965Z,998.90
2018-03-02T01:49:36.936Z,998.89
2018-03-02T01:50:36.905Z,998.87
2018-03-02T01:51:36.875Z,998.82
2018-03-02T01:52:36.837Z,998.85
2018-03-02T01:53:36.803Z,998.82
2018-03-02T01:54:36.784Z,998.88
2018-03-02T01:55:36.737Z,998.83
2018-03-02T01:56:36.704Z,998.82
2018-03-02T01:57:36.673Z,998.83
2018-03-02T01:58:36.645Z,998.82
2018-03-02T01:59:36.605Z,998.83
2018-03-02T02:00:36.576Z,998.84
2018-03-02T02:01:36.540Z,998.82
2018-03-02T02:02:36.529Z,998.86
2018-03-02T02:03:36.474Z,998.81
2018-03-02T02:04:36.449Z,998.76
2018-03-02T02:05:36.413Z,998.80
2018-03-02T02:06:36.379Z,998.74
2018-03-02T02:07:36.349Z,998.77
2018-03-02T02:08:36.311Z,998.76
2018-03-02T02:09:36.282Z,998.68
2018-03-02T02:10:36.249Z,998.69
2018-03-02T02:11:36.213Z,998.68
2018-03-02T02:12:36.181Z,998.74
2018-03-02T02:13:36.148Z,998.80
2018-03-02T02:14:36.115Z,998.72
2018-03-02T02:15:36.087Z,998.77
2018-03-02T02:16:36.048Z,998.74
2018-03-02T02:17:36.027Z,998.73
2018-03-02T02:18:36.036Z,998.77
2018-03-02T02:19:35.952Z,998.74
2018-03-02T02:20:35.948Z,998.70
2018-03-02T02:21:35.883Z,998.73
2018-03-02T02:22:35.856Z,998.63
2018-03-02T02:23:35.852Z,998.67
2018-03-02T02:24:35.786Z,998.64
2018-03-02T02:25:35.754Z,998.66
2018-03-02T02:26:35.724Z,998.61
2018-03-02T02:27:35.684Z,998.65
2018-03-02T02:28:35.658Z,998.67
2018-03-02T02:29:35.628Z,998.72
2018-03-02T02:30:35.593Z,998.66
2018-03-02T02:31:35.560Z,998.64
2018-03-02T02:32:35.523Z,998.62
2018-03-02T02:33:35.495Z,998.54
2018-03-02T02:34:35.459Z,998.58
2018-03-02T02:35:35.426Z,998.56
2018-03-02T02:36:35.398Z,998.53
2018-03-02T02:37:35.358Z,998.49
2018-03-02T02:38:35.333Z,998.43
2018-03-02T02:39:35.298Z,998.43
2018-03-02T02:40:35.263Z,998.46
2018-03-02T02:41:35.226Z,998.44
2018-03-02T02:42:35.199Z,998.44
2018-03-02T02:43:35.169Z,998.44
2018-03-02T02:44:35.130Z,998.39
2018-03-02T02:45:35.096Z,998.53
2018-03-02T02:46:35.066Z,998.40
2018-03-02T02:47:35.037Z,998.44
2018-03-02T02:48:34.999Z,998.42
2018-03-02T02:49:34.967Z,998.40
2018-03-02T02:50:34.931Z,998.44
2018-03-02T02:51:34.901Z,998.45
2018-03-02T02:52:34.895Z,998.42
2018-03-02T02:53:34.841Z,998.48
2018-03-02T02:54:34.838Z,998.46
2018-03-02T02:55:34.771Z,998.41
2018-03-02T02:56:34.742Z,998.43
2018-03-02T02:57:34.706Z,998.42
2018-03-02T02:58:34.672Z,998.39
2018-03-02T02:59:34.636Z,998.37
2018-03-02T03:00:34.607Z,998.40
2018-03-02T03:01:34.570Z,998.46
2018-03-02T03:02:34.542Z,998.38
2018-03-02T03:03:34.532Z,998.43
2018-03-02T03:04:34.471Z,998.41
2018-03-02T03:05:34.441Z,998.44
2018-03-02T03:06:34.412Z,998.41
2018-03-02T03:07:34.373Z,998.38
2018-03-02T03:08:34.343Z,998.43
2018-03-02T03:09:34.307Z,998.40
2018-03-02T03:10:34.274Z,998.44
2018-03-02T03:11:34.238Z,998.42
2018-03-02T03:12:34.213Z,998.41
2018-03-02T03:13:34.177Z,998.42
2018-03-02T03:14:34.148Z,998.40
2018-03-02T03:15:34.113Z,998.41
2018-03-02T03:16:34.079Z,998.42
2018-03-02T03:17:34.039Z,998.45
2018-03-02T03:18:34.009Z,998.39
2018-03-02T03:19:33.985Z,998.40
2018-03-02T03:20:33.952Z,998.39
2018-03-02T03:21:33.910Z,998.31
2018-03-02T03:22:33.878Z,998.33
2018-03-02T03:23:33.847Z,998.24
2018-03-02T03:24:33.811Z,998.29
2018-03-02T03:25:33.781Z,998.19
2018-03-02T03:26:33.742Z,998.20
2018-03-02T03:27:33.711Z,998.19
2018-03-02T03:28:33.678Z,998.22
2018-03-02T03:29:33.644Z,998.24
2018-03-02T03:30:33.612Z,998.19
2018-03-02T03:31:33.580Z,998.17
2018-03-02T03:32:33.555Z,998.16
2018-03-02T03:33:33.514Z,998.14
2018-03-02T03:34:33.482Z,998.16
2018-03-02T03:35:33.448Z,998.18
2018-03-02T03:36:33.416Z,998.14
2018-03-02T03:37:33.393Z,998.10
2018-03-02T03:38:33.348Z,998.04
2018-03-02T03:39:33.314Z,998.06
2018-03-02T03:40:33.281Z,998.02
2018-03-02T03:41:33.249Z,998.02
2018-03-02T03:42:33.211Z,998.04
2018-03-02T03:43:33.187Z,998.03
2018-03-02T03:44:33.146Z,998.03
2018-03-02T03:45:33.115Z,998.02
2018-03-02T03:46:33.083Z,998.03
2018-03-02T03:47:33.045Z,997.99
2018-03-02T03:48:33.016Z,998.02
2018-03-02T03:49:33.012Z,997.99
2018-03-02T03:50:32.977Z,997.99
2018-03-02T03:51:32.936Z,997.92
2018-03-02T03:52:32.888Z,997.93
2018-03-02T03:53:32.849Z,997.88
2018-03-02T03:54:32.835Z,997.86
2018-03-02T03:55:32.789Z,997.87
2018-03-02T03:56:32.747Z,997.83
2018-03-02T03:57:32.722Z,997.94
2018-03-02T03:58:32.684Z,997.87
2018-03-02T03:59:32.658Z,997.87
2018-03-02T04:00:32.630Z,997.83
2018-03-02T04:01:34.412Z,997.83
2018-03-02T04:02:32.552Z,997.80
2018-03-02T04:03:32.521Z,997.84
2018-03-02T04:04:32.485Z,997.84
2018-03-02T04:05:32.447Z,997.84
2018-03-02T04:06:32.426Z,997.80
2018-03-02T04:07:32.442Z,997.85
2018-03-02T04:08:32.359Z,997.72
2018-03-02T04:09:32.352Z,997.82
2018-03-02T04:10:32.281Z,997.83
2018-03-02T04:11:32.252Z,997.79
2018-03-02T04:12:32.224Z,997.82
2018-03-02T04:13:32.202Z,997.80
2018-03-02T04:14:32.153Z,997.77
2018-03-02T04:15:32.123Z,997.72
2018-03-02T04:16:32.082Z,997.80
2018-03-02T04:17:32.055Z,997.79
2018-03-02T04:18:32.018Z,997.80
2018-03-02T04:19:31.988Z,997.77
2018-03-02T04:20:31.953Z,997.74
2018-03-02T04:21:31.916Z,997.72
2018-03-02T04:22:31.890Z,997.76
2018-03-02T04:23:31.852Z,997.71
2018-03-02T04:24:31.830Z,997.72
2018-03-02T04:25:31.796Z,997.80
2018-03-02T04:26:31.756Z,997.74
2018-03-02T04:27:31.726Z,997.68
2018-03-02T04:28:31.695Z,997.73
2018-03-02T04:29:31.656Z,997.71
2018-03-02T04:30:31.622Z,997.71
2018-03-02T04:31:31.587Z,997.69
2018-03-02T04:32:31.556Z,997.73
2018-03-02T04:33:31.542Z,997.72
2018-03-02T04:34:31.487Z,997.72
2018-03-02T04:35:31.457Z,997.79
2018-03-02T04:36:31.433Z,997.79
2018-03-02T04:37:31.391Z,997.70
2018-03-02T04:38:31.365Z,997.73
2018-03-02T04:39:31.321Z,997.78
2018-03-02T04:40:31.296Z,997.74
2018-03-02T04:41:31.278Z,997.76
2018-03-02T04:42:31.223Z,997.67
2018-03-02T04:43:31.194Z,997.73
2018-03-02T04:44:31.152Z,997.73
2018-03-02T04:45:31.125Z,997.73
2018-03-02T04:46:31.091Z,997.68
2018-03-02T04:47:31.068Z,997.70
2018-03-02T04:48:31.024Z,997.70
2018-03-02T04:49:30.994Z,997.75
2018-03-02T04:50:30.957Z,997.74
2018-03-02T04:51:30.921Z,997.66
2018-03-02T04:52:30.891Z,997.70
2018-03-02T04:53:30.857Z,997.73
2018-03-02T04:54:30.831Z,997.67
2018-03-02T04:55:30.791Z,997.70
2018-03-02T04:56:30.758Z,997.67
2018-03-02T04:57:30.726Z,997.68
2018-03-02T04:58:30.690Z,997.70
2018-03-02T04:59:30.659Z,997.65
2018-03-02T05:00:30.622Z,997.68
2018-03-02T05:01:30.613Z,997.75
2018-03-02T05:02:30.551Z,997.67
2018-03-02T05:03:30.524Z,997.67
2018-03-02T05:04:30.488Z,997.56
2018-03-02T05:05:30.460Z,997.60
2018-03-02T05:06:30.426Z,997.60
2018-03-02T05:07:30.390Z,997.71
2018-03-02T05:08:30.360Z,997.64
2018-03-02T05:09:30.323Z,997.65
2018-03-02T05:10:30.288Z,997.62
2018-03-02T05:11:30.254Z,997.59
2018-03-02T05:12:30.219Z,997.65
2018-03-02T05:13:30.190Z,997.64
2018-03-02T05:14:30.156Z,997.57
2018-03-02T05:15:30.127Z,997.56
2018-03-02T05:16:30.090Z,997.58
2018-03-02T05:17:30.074Z,997.56
2018-03-02T05:18:30.022Z,997.53
2018-03-02T05:19:29.991Z,997.57
2018-03-02T05:20:29.959Z,997.55
2018-03-02T05:21:29.919Z,997.54
2018-03-02T05:22:29.910Z,997.54
2018-03-02T05:23:29.855Z,997.52
2018-03-02T05:24:29.822Z,997.51
2018-03-02T05:25:29.789Z,997.50
2018-03-02T05:26:29.748Z,997.46
2018-03-02T05:27:29.726Z,997.47
2018-03-02T05:28:29.689Z,997.48
2018-03-02T05:29:29.654Z,997.45
2018-03-02T05:30:29.620Z,997.44
2018-03-02T05:31:29.611Z,997.37
2018-03-02T05:32:29.574Z,997.37
2018-03-02T05:33:29.517Z,997.39
2018-03-02T05:34:29.487Z,997.32
2018-03-02T05:35:29.451Z,997.40
2018-03-02T05:36:29.413Z,997.34
2018-03-02T05:37:29.391Z,997.40
2018-03-02T05:38:29.362Z,997.33
2018-03-02T05:39:29.319Z,997.38
2018-03-02T05:40:29.287Z,997.39
2018-03-02T05:41:29.273Z,997.29
2018-03-02T05:42:29.223Z,997.33
2018-03-02T05:43:29.218Z,997.25
2018-03-02T05:44:29.149Z,997.20
2018-03-02T05:45:29.118Z,997.23
2018-03-02T05:46:29.088Z,997.05
2018-03-02T05:47:29.052Z,997.22
2018-03-02T05:48:29.021Z,997.21
2018-03-02T05:49:28.980Z,997.12
2018-03-02T05:50:28.949Z,997.19
2018-03-02T05:51:28.916Z,997.20
2018-03-02T05:52:28.885Z,997.21
2018-03-02T05:53:28.851Z,997.18
2018-03-02T05:54:28.814Z,997.19
2018-03-02T05:55:28.789Z,997.17
2018-03-02T05:56:28.748Z,997.25
2018-03-02T05:57:28.742Z,997.22
2018-03-02T05:58:28.683Z,997.21
2018-03-02T05:59:28.642Z,997.21
2018-03-02T06:00:28.621Z,997.22
2018-03-02T06:01:28.580Z,997.17
2018-03-02T06:02:28.547Z,997.16
2018-03-02T06:03:28.516Z,997.16
2018-03-02T06:04:28.481Z,997.08
2018-03-02T06:05:28.457Z,997.16
2018-03-02T06:06:28.412Z,997.10
2018-03-02T06:07:28.387Z,997.09
2018-03-02T06:08:28.344Z,997.11
2018-03-02T06:09:28.315Z,997.11
2018-03-02T06:10:28.295Z,997.21
2018-03-02T06:11:28.243Z,997.11
2018-03-02T06:12:28.211Z,997.14
2018-03-02T06:13:28.175Z,997.09
2018-03-02T06:14:28.150Z,997.07
2018-03-02T06:15:28.109Z,997.06
2018-03-02T06:16:28.075Z,997.14
2018-03-02T06:17:28.042Z,997.07
2018-03-02T06:18:28.012Z,997.10
2018-03-02T06:19:27.975Z,997.11
2018-03-02T06:20:27.945Z,997.10
2018-03-02T06:21:27.909Z,997.15
2018-03-02T06:22:27.873Z,997.06
2018-03-02T06:23:27.846Z,997.10
2018-03-02T06:24:27.811Z,997.04
2018-03-02T06:25:27.785Z,997.12
2018-03-02T06:26:27.740Z,997.15
2018-03-02T06:27:27.709Z,997.16
2018-03-02T06:28:27.672Z,997.13
2018-03-02T06:29:27.638Z,997.16
2018-03-02T06:30:27.604Z,997.13
2018-03-02T06:31:27.573Z,997.08
2018-03-02T06:32:27.560Z,997.11
2018-03-02T06:33:27.531Z,997.08
2018-03-02T06:34:27.476Z,997.08
2018-03-02T06:35:27.436Z,997.12
2018-03-02T06:36:27.408Z,997.12
2018-03-02T06:37:27.367Z,997.17
2018-03-02T06:38:27.338Z,997.23
2018-03-02T06:39:27.304Z,997.17
2018-03-02T06:40:27.269Z,997.16
2018-03-02T06:41:27.235Z,997.09
2018-03-02T06:42:27.202Z,997.13
2018-03-02T06:43:27.169Z,997.08
2018-03-02T06:44:27.134Z,997.07
2018-03-02T06:45:27.104Z,997.03
2018-03-02T06:46:27.068Z,997.02
2018-03-02T06:47:27.033Z,997.00
2018-03-02T06:48:27.000Z,997.03
2018-03-02T06:49:26.963Z,997.00
2018-03-02T06:50:26.933Z,997.08
2018-03-02T06:51:26.897Z,997.08
2018-03-02T06:52:26.873Z,997.02
2018-03-02T06:53:26.833Z,997.08
2018-03-02T06:54:26.799Z,997.05
2018-03-02T06:55:26.762Z,996.98
2018-03-02T06:56:26.732Z,997.01
2018-03-02T06:57:26.699Z,997.00
2018-03-02T06:58:26.664Z,996.94
2018-03-02T06:59:26.635Z,996.90
2018-03-02T07:00:26.605Z,996.91
2018-03-02T07:01:26.562Z,996.93
2018-03-02T07:02:26.529Z,996.87
2018-03-02T07:03:26.534Z,996.87
2018-03-02T07:04:26.464Z,996.93
2018-03-02T07:05:26.426Z,996.88
2018-03-02T07:06:26.393Z,996.95
2018-03-02T07:07:26.365Z,996.91
2018-03-02T07:08:26.332Z,996.85
2018-03-02T07:09:26.299Z,996.81
2018-03-02T07:10:26.256Z,996.84
2018-03-02T07:11:26.240Z,996.86
2018-03-02T07:12:26.189Z,996.86
2018-03-02T07:13:26.166Z,996.82
2018-03-02T07:14:26.129Z,996.78
2018-03-02T07:15:26.097Z,996.78
2018-03-02T07:16:26.077Z,996.89
2018-03-02T07:17:26.053Z,996.82
2018-03-02T07:18:25.997Z,996.82
2018-03-02T07:19:25.962Z,996.82
2018-03-02T07:20:25.934Z,996.77
2018-03-02T07:21:25.904Z,996.81
2018-03-02T07:22:25.864Z,996.73
2018-03-02T07:23:25.828Z,996.78
2018-03-02T07:24:25.799Z,996.88
2018-03-02T07:25:25.766Z,996.82
2018-03-02T07:26:25.729Z,996.80
2018-03-02T07:27:25.700Z,996.75
2018-03-02T07:28:25.661Z,996.83
2018-03-02T07:29:25.696Z,996.74
2018-03-02T07:30:25.602Z,996.74
2018-03-02T07:31:25.568Z,996.79
2018-03-02T07:32:25.533Z,996.66
2018-03-02T07:33:25.497Z,996.75
2018-03-02T07:34:25.470Z,996.71
2018-03-02T07:35:25.433Z,996.70
2018-03-02T07:36:25.409Z,996.76
2018-03-02T07:37:25.363Z,996.72
2018-03-02T07:38:25.374Z,996.71
2018-03-02T07:39:25.298Z,996.67
2018-03-02T07:40:25.266Z,996.62
2018-03-02T07:41:25.244Z,996.71
2018-03-02T07:42:25.198Z,996.66
2018-03-02T07:43:25.173Z,996.64
2018-03-02T07:44:25.132Z,996.62
2018-03-02T07:45:25.110Z,996.64
2018-03-02T07:46:25.068Z,996.60
2018-03-02T07:47:25.033Z,996.62
2018-03-02T07:48:25.005Z,996.63
2018-03-02T07:49:24.970Z,996.58
2018-03-02T07:50:24.935Z,996.63
2018-03-02T07:51:24.905Z,996.65
2018-03-02T07:52:24.872Z,996.68
2018-03-02T07:53:24.841Z,996.72
2018-03-02T07:54:24.810Z,996.54
2018-03-02T07:55:24.773Z,996.66
2018-03-02T07:56:24.751Z,996.64
2018-03-02T07:57:24.711Z,996.64
2018-03-02T07:58:24.674Z,996.59
2018-03-02T07:59:24.643Z,996.67
2018-03-02T08:00:24.608Z,996.58
2018-03-02T08:01:24.577Z,996.61
2018-03-02T08:02:24.551Z,996.61
2018-03-02T08:03:24.514Z,996.59
2018-03-02T08:04:24.528Z,996.57
2018-03-02T08:05:24.446Z,996.56
2018-03-02T08:06:24.408Z,996.50
2018-03-02T08:07:24.382Z,996.58
2018-03-02T08:08:24.349Z,996.58
2018-03-02T08:09:24.316Z,996.42
2018-03-02T08:10:24.276Z,996.44
2018-03-02T08:11:24.251Z,996.45
2018-03-02T08:12:24.220Z,996.37
2018-03-02T08:13:24.182Z,996.48
2018-03-02T08:14:24.154Z,996.53
2018-03-02T08:15:24.121Z,996.46
2018-03-02T08:16:24.090Z,996.48
2018-03-02T08:17:24.058Z,996.49
2018-03-02T08:18:24.041Z,996.41
2018-03-02T08:19:23.989Z,996.36
2018-03-02T08:20:23.996Z,996.51
2018-03-02T08:21:23.924Z,996.43
2018-03-02T08:22:23.895Z,996.36
2018-03-02T08:23:23.856Z,996.38
2018-03-02T08:24:23.825Z,996.46
2018-03-02T08:25:23.795Z,996.41
2018-03-02T08:26:23.761Z,996.45
2018-03-02T08:27:23.733Z,996.41
2018-03-02T08:28:23.699Z,996.40
2018-03-02T08:29:23.665Z,996.30
2018-03-02T08:30:23.634Z,996.39
2018-03-02T08:31:23.601Z,996.41
2018-03-02T08:32:23.569Z,996.28
2018-03-02T08:33:23.538Z,996.41
2018-03-02T08:34:23.505Z,996.36
2018-03-02T08:35:23.472Z,996.32
2018-03-02T08:36:23.438Z,996.18
2018-03-02T08:37:23.408Z,996.46
2018-03-02T08:38:23.375Z,996.38
2018-03-02T08:39:23.339Z,996.39
2018-03-02T08:40:23.307Z,996.43
2018-03-02T08:41:23.278Z,996.41
2018-03-02T08:42:23.244Z,996.45
2018-03-02T08:43:23.214Z,996.48
2018-03-02T08:44:23.183Z,996.44
2018-03-02T08:45:23.149Z,996.45
2018-03-02T08:46:23.117Z,996.45
2018-03-02T08:47:23.083Z,996.40
2018-03-02T08:48:23.057Z,996.41
2018-03-02T08:49:23.017Z,996.44
2018-03-02T08:50:22.990Z,996.36
2018-03-02T08:51:22.956Z,996.31
2018-03-02T08:52:22.928Z,996.40
2018-03-02T08:53:22.891Z,996.38
2018-03-02T08:54:22.864Z,996.40
2018-03-02T08:55:22.828Z,996.34
2018-03-02T08:56:22.808Z,996.39
2018-03-02T08:57:22.782Z,996.31
2018-03-02T08:58:22.731Z,996.36
2018-03-02T08:59:22.700Z,996.29
2018-03-02T09:00:22.671Z,996.32
2018-03-02T09:01:22.653Z,996.29
2018-03-02T09:02:22.601Z,996.26
2018-03-02T09:03:22.573Z,996.28
2018-03-02T09:04:22.536Z,996.29
2018-03-02T09:05:22.512Z,996.26
2018-03-02T09:06:22.475Z,996.32
2018-03-02T09:07:22.451Z,996.36
2018-03-02T09:08:22.413Z,996.36
2018-03-02T09:09:22.381Z,996.31
2018-03-02T09:10:22.349Z,996.34
2018-03-02T09:11:22.319Z,996.31
2018-03-02T09:12:22.286Z,996.28
2018-03-02T09:13:22.256Z,996.31
2018-03-02T09:14:22.219Z,996.29
2018-03-02T09:15:22.192Z,996.24
2018-03-02T09:16:22.160Z,996.23
2018-03-02T09:17:22.128Z,996.35
2018-03-02T09:18:22.134Z,996.31
2018-03-02T09:19:22.063Z,996.24
2018-03-02T09:20:22.034Z,996.21
2018-03-02T09:21:22.011Z,996.19
2018-03-02T09:22:21.972Z,996.24
2018-03-02T09:23:21.941Z,996.09
2018-03-02T09:24:21.914Z,996.20
2018-03-02T09:25:21.878Z,996.22
2018-03-02T09:26:21.847Z,996.15
2018-03-02T09:27:21.815Z,996.25
2018-03-02T09:28:21.785Z,996.26
2018-03-02T09:29:21.754Z,996.39
2018-03-02T09:30:21.723Z,996.35
2018-03-02T09:31:21.700Z,996.29
2018-03-02T09:32:21.664Z,996.32
2018-03-02T09:33:21.625Z,996.28
2018-03-02T09:34:21.602Z,996.23
2018-03-02T09:35:21.570Z,996.34
2018-03-02T09:36:21.537Z,996.29
2018-03-02T09:37:21.562Z,996.23
2018-03-02T09:38:21.476Z,996.32
2018-03-02T09:39:21.451Z,996.14
2018-03-02T09:40:21.421Z,996.20
2018-03-02T09:41:21.394Z,996.15
2018-03-02T09:42:21.361Z,996.26
2018-03-02T09:43:21.331Z,996.17
2018-03-02T09:44:21.305Z,996.21
2018-03-02T09:45:21.272Z,996.14
2018-03-02T09:46:21.247Z,996.18
2018-03-02T09:47:21.219Z,996.23
2018-03-02T09:48:21.184Z,996.26
2018-03-02T09:49:21.165Z,996.19
2018-03-02T09:50:21.125Z,996.12
2018-03-02T09:51:21.102Z,996.17
2018-03-02T09:52:21.067Z,996.28
2018-03-02T09:53:21.040Z,996.28
2018-03-02T09:54:21.009Z,996.28
2018-03-02T09:55:20.982Z,996.34
2018-03-02T09:56:20.957Z,996.26
2018-03-02T09:57:20.929Z,996.27
2018-03-02T09:58:20.895Z,996.32
2018-03-02T09:59:20.870Z,996.25
2018-03-02T10:00:20.842Z,996.24
2018-03-02T10:01:20.814Z,996.28
2018-03-02T10:02:20.781Z,996.22
2018-03-02T10:03:20.753Z,996.32
2018-03-02T10:04:20.731Z,996.32
2018-03-02T10:05:20.734Z,996.21
2018-03-02T10:06:20.677Z,996.40
2018-03-02T10:07:20.649Z,996.35
2018-03-02T10:08:20.623Z,996.35
2018-03-02T10:09:20.599Z,996.41
2018-03-02T10:10:20.569Z,996.38
2018-03-02T10:11:20.541Z,996.31
2018-03-02T10:12:20.518Z,996.37
2018-03-02T10:13:20.502Z,996.38
2018-03-02T10:14:20.457Z,996.50
2018-03-02T10:15:20.438Z,996.37
2018-03-02T10:16:20.416Z,996.39
2018-03-02T10:17:20.444Z,996.49
2018-03-02T10:18:20.370Z,996.33
2018-03-02T10:19:20.337Z,996.44
2018-03-02T10:20:20.312Z,996.47
2018-03-02T10:21:20.287Z,996.41
2018-03-02T10:22:20.261Z,996.36
2018-03-02T10:23:20.289Z,996.40
2018-03-02T10:24:20.209Z,996.43
2018-03-02T10:25:20.184Z,996.35
2018-03-02T10:26:20.159Z,996.37
2018-03-02T10:27:20.131Z,996.44
2018-03-02T10:28:20.110Z,996.45
2018-03-02T10:29:20.088Z,996.50
2018-03-02T10:30:20.074Z,996.64
2018-03-02T10:31:20.039Z,996.52
2018-03-02T10:32:20.014Z,996.41
2018-03-02T10:33:19.989Z,996.39
2018-03-02T10:34:19.969Z,996.40
2018-03-02T10:35:19.953Z,996.40
2018-03-02T10:36:19.926Z,996.34
2018-03-02T10:37:19.898Z,996.36
2018-03-02T10:38:19.874Z,996.23
2018-03-02T10:39:19.856Z,996.48
2018-03-02T10:40:19.828Z,996.35
2018-03-02T10:41:19.809Z,996.29
2018-03-02T10:42:19.783Z,996.33
2018-03-02T10:43:19.760Z,996.25
2018-03-02T10:44:19.732Z,996.27
2018-03-02T10:45:19.715Z,996.16
2018-03-02T10:46:19.694Z,996.25
2018-03-02T10:47:19.688Z,996.19
2018-03-02T10:48:19.645Z,996.16
2018-03-02T10:49:19.630Z,996.22
2018-03-02T10:50:19.607Z,996.04
2018-03-02T10:51:19.576Z,996.01
2018-03-02T10:52:19.555Z,995.96
2018-03-02T10:53:19.534Z,996.07
2018-03-02T10:54:19.511Z,996.01
2018-03-02T10:55:19.486Z,996.08
2018-03-02T10:56:19.494Z,995.98
2018-03-02T10:57:19.457Z,995.99
2018-03-02T10:58:19.426Z,996.01
2018-03-02T10:59:19.400Z,996.03
2018-03-02T11:00:19.380Z,996.14
2018-03-02T11:01:19.356Z,996.11
2018-03-02T11:02:19.333Z,996.09
2018-03-02T11:03:19.308Z,995.99
2018-03-02T11:04:19.289Z,995.99
2018-03-02T11:05:19.273Z,995.98
2018-03-02T11:06:19.256Z,995.93
2018-03-02T11:07:19.224Z,995.92
2018-03-02T11:08:19.202Z,995.89
2018-03-02T11:09:19.183Z,995.92
2018-03-02T11:10:19.158Z,995.94
2018-03-02T11:11:19.136Z,995.83
2018-03-02T11:12:19.111Z,995.94
2018-03-02T11:13:19.092Z,995.99
2018-03-02T11:14:19.064Z,995.92
2018-03-02T11:15:19.049Z,995.95
2018-03-02T11:16:19.022Z,995.93
2018-03-02T11:17:19.009Z,995.92
2018-03-02T11:18:18.982Z,995.90
2018-03-02T11:19:18.962Z,995.90
2018-03-02T11:20:18.941Z,995.85
2018-03-02T11:21:18.923Z,995.87
2018-03-02T11:22:18.896Z,995.90
2018-03-02T11:23:18.878Z,995.87
2018-03-02T11:24:18.854Z,995.74
2018-03-02T11:25:18.834Z,995.77
2018-03-02T11:26:18.813Z,995.82
2018-03-02T11:27:18.794Z,995.73
2018-03-02T11:28:18.773Z,995.76
2018-03-02T11:29:18.748Z,995.72
2018-03-02T11:30:18.732Z,995.67
2018-03-02T11:31:18.707Z,995.68
2018-03-02T11:32:18.690Z,995.63
2018-03-02T11:33:18.666Z,995.66
2018-03-02T11:34:18.642Z,995.68
2018-03-02T11:35:18.622Z,995.56
2018-03-02T11:36:18.598Z,995.69
2018-03-02T11:37:18.577Z,995.63
2018-03-02T11:38:18.564Z,995.53
2018-03-02T11:39:18.540Z,995.56
2018-03-02T11:40:18.522Z,995.60
2018-03-02T11:41:18.502Z,995.59
2018-03-02T11:42:18.476Z,995.61
2018-03-02T11:43:18.462Z,995.55
2018-03-02T11:44:18.440Z,995.65
2018-03-02T11:45:18.425Z,995.57
2018-03-02T11:46:18.401Z,995.58
2018-03-02T11:47:18.384Z,995.62
2018-03-02T11:48:18.363Z,995.54
2018-03-02T11:49:18.360Z,995.52
2018-03-02T11:50:18.322Z,995.51
2018-03-02T11:51:18.303Z,995.48
2018-03-02T11:52:18.286Z,995.58
2018-03-02T11:53:18.274Z,995.49
2018-03-02T11:54:18.246Z,995.57
2018-03-02T11:55:18.226Z,995.54
2018-03-02T11:56:18.208Z,995.49
2018-03-02T11:57:18.194Z,995.53
2018-03-02T11:58:18.162Z,995.57
2018-03-02T11:59:18.150Z,995.55
2018-03-02T12:00:18.130Z,995.60
2018-03-02T12:01:18.111Z,995.54
2018-03-02T12:02:18.092Z,995.43
2018-03-02T12:03:18.072Z,995.47
2018-03-02T12:04:18.055Z,995.55
2018-03-02T12:05:18.041Z,995.53
2018-03-02T12:06:18.017Z,995.57
2018-03-02T12:07:17.992Z,995.49
2018-03-02T12:08:17.980Z,995.55
2018-03-02T12:09:17.966Z,995.54
2018-03-02T12:10:17.940Z,995.46
2018-03-02T12:11:17.923Z,995.45
2018-03-02T12:12:17.904Z,995.42
2018-03-02T12:13:17.886Z,995.46
2018-03-02T12:14:17.866Z,995.44
2018-03-02T12:15:17.844Z,995.49
2018-03-02T12:16:17.829Z,995.49
2018-03-02T12:17:17.810Z,995.44
2018-03-02T12:18:17.791Z,995.41
2018-03-02T12:19:17.771Z,995.43
2018-03-02T12:20:17.755Z,995.44
2018-03-02T12:21:17.735Z,995.45
2018-03-02T12:22:17.712Z,995.43
2018-03-02T12:23:17.696Z,995.45
2018-03-02T12:24:17.682Z,995.38
2018-03-02T12:25:17.662Z,995.36
2018-03-02T12:26:17.642Z,995.31
2018-03-02T12:27:17.628Z,995.36
2018-03-02T12:28:17.610Z,995.38